createdAt,value
2023-11-01T00:02:18.982Z,88.50
2023-11-01T00:04:46.808Z,88.40
2023-11-01T00:07:13.748Z,88.20
2023-11-01T00:09:42.434Z,87.90
2023-11-01T00:12:09.495Z,87.70
2023-11-01T00:14:37.599Z,87.70
2023-11-01T00:17:06.498Z,87.80
2023-11-01T00:19:33.398Z,87.70
2023-11-01T00:22:00.107Z,87.70
2023-11-01T00:24:27.483Z,87.90
2023-11-01T00:26:55.271Z,87.90
2023-11-01T00:29:22.267Z,88.00
2023-11-01T00:31:51.009Z,88.20
2023-11-01T00:34:17.643Z,88.60
2023-11-01T00:36:44.569Z,88.60
2023-11-01T00:39:11.499Z,88.80
2023-11-01T00:41:42.966Z,88.90
2023-11-01T00:44:10.436Z,89.00
2023-11-01T00:46:37.905Z,89.20
2023-11-01T00:49:04.814Z,89.20
2023-11-01T00:51:31.447Z,89.40
2023-11-01T00:53:58.294Z,89.50
2023-11-01T00:56:32.603Z,89.70
2023-11-01T00:59:02.728Z,89.70
2023-11-01T01:01:29.430Z,89.80
2023-11-01T01:03:56.214Z,89.90
2023-11-01T01:06:22.892Z,90.00
2023-11-01T01:08:50.050Z,90.20
2023-11-01T01:11:18.681Z,90.00
2023-11-01T01:13:46.582Z,90.10
2023-11-01T01:16:13.514Z,90.10
2023-11-01T01:18:40.663Z,90.10
2023-11-01T01:21:09.691Z,90.10
2023-11-01T01:23:36.563Z,90.20
2023-11-01T01:26:03.819Z,90.20
2023-11-01T01:28:30.764Z,90.30
2023-11-01T01:30:57.616Z,90.30
2023-11-01T01:33:26.868Z,90.60
2023-11-01T01:35:56.484Z,90.70
2023-11-01T01:38:27.426Z,90.70
2023-11-01T01:40:54.122Z,90.90
2023-11-01T01:43:22.596Z,91.00
2023-11-01T01:45:54.682Z,91.10
2023-11-01T01:48:24.822Z,91.20
2023-11-01T01:50:51.534Z,91.30
2023-11-01T01:53:19.143Z,91.40
2023-11-01T01:55:49.161Z,91.40
2023-11-01T01:58:16.280Z,91.80
2023-11-01T02:00:46.488Z,92.00
2023-11-01T02:03:16.300Z,92.20
2023-11-01T02:05:43.652Z,92.00
2023-11-01T02:08:10.369Z,91.90
2023-11-01T02:10:38.132Z,91.70
2023-11-01T02:13:16.201Z,91.80
2023-11-01T02:15:44.404Z,91.70
2023-11-01T02:18:13.471Z,91.70
2023-11-01T02:20:42.053Z,91.50
2023-11-01T02:23:09.673Z,91.60
2023-11-01T02:25:36.488Z,91.60
2023-11-01T02:28:07.307Z,91.80
2023-11-01T02:30:34.183Z,91.90
2023-11-01T02:33:01.236Z,92.10
2023-11-01T02:35:29.703Z,92.10
2023-11-01T02:37:56.581Z,91.60
2023-11-01T02:40:23.353Z,91.60
2023-11-01T02:42:52.700Z,91.00
2023-11-01T02:45:19.378Z,90.50
2023-11-01T02:47:46.141Z,90.00
2023-11-01T02:50:14.934Z,89.30
2023-11-01T02:52:42.913Z,89.00
2023-11-01T02:55:11.561Z,89.00
2023-11-01T02:57:40.046Z,88.60
2023-11-01T03:00:09.170Z,88.70
2023-11-01T03:02:37.286Z,88.30
2023-11-01T03:05:04.606Z,88.20
2023-11-01T03:07:31.806Z,87.90
2023-11-01T03:09:58.582Z,87.60
2023-11-01T03:12:25.438Z,87.50
2023-11-01T03:14:52.767Z,87.30
2023-11-01T03:17:22.625Z,87.40
2023-11-01T03:19:49.444Z,87.50
2023-11-01T03:22:16.103Z,87.50
2023-11-01T03:24:45.124Z,87.60
2023-11-01T03:27:11.744Z,87.50
2023-11-01T03:29:39.029Z,87.40
2023-11-01T03:32:06.838Z,87.40
2023-11-01T03:34:33.794Z,87.20
2023-11-01T03:37:00.470Z,87.00
2023-11-01T03:39:28.482Z,86.80
2023-11-01T03:41:55.145Z,86.60
2023-11-01T03:44:22.674Z,86.60
2023-11-01T03:46:49.518Z,86.70
2023-11-01T03:49:16.418Z,86.70
2023-11-01T03:51:44.528Z,86.70
2023-11-01T03:54:11.849Z,86.70
2023-11-01T03:56:43.441Z,86.70
2023-11-01T03:59:10.588Z,86.60
2023-11-01T04:01:40.494Z,86.60
2023-11-01T04:04:07.778Z,86.80
2023-11-01T04:06:34.746Z,86.90
2023-11-01T04:09:01.385Z,86.90
2023-11-01T04:11:31.112Z,87.00
2023-11-01T04:13:58.221Z,87.10
2023-11-01T04:16:33.932Z,87.10
2023-11-01T04:19:04.645Z,87.20
2023-11-01T04:21:31.606Z,87.40
2023-11-01T04:23:58.232Z,87.50
2023-11-01T04:26:25.228Z,87.70
2023-11-01T04:28:53.489Z,87.70
2023-11-01T04:31:25.946Z,87.80
2023-11-01T04:33:53.047Z,87.90
2023-11-01T04:36:27.260Z,88.10
2023-11-01T04:38:55.067Z,88.30
2023-11-01T04:41:23.080Z,88.50
2023-11-01T04:43:49.992Z,88.80
2023-11-01T04:46:16.954Z,88.70
2023-11-01T04:48:43.661Z,88.80
2023-11-01T04:51:13.131Z,88.80
2023-11-01T04:53:40.398Z,88.70
2023-11-01T04:56:10.837Z,88.80
2023-11-01T04:58:38.481Z,88.90
2023-11-01T05:01:07.169Z,88.90
2023-11-01T05:03:40.402Z,89.00
2023-11-01T05:06:08.721Z,89.00
2023-11-01T05:08:38.734Z,89.20
2023-11-01T05:11:06.611Z,89.20
2023-11-01T05:13:33.960Z,89.20
2023-11-01T05:16:00.679Z,89.50
2023-11-01T05:18:28.808Z,89.60
2023-11-01T05:20:55.577Z,89.70
2023-11-01T05:23:23.662Z,89.80
2023-11-01T05:25:51.095Z,89.80
2023-11-01T05:28:18.436Z,90.00
2023-11-01T05:30:48.847Z,90.10
2023-11-01T05:33:15.714Z,90.20
2023-11-01T05:35:44.606Z,90.40
2023-11-01T05:38:11.635Z,90.70
2023-11-01T05:40:38.734Z,90.70
2023-11-01T05:43:06.546Z,91.20
2023-11-01T05:45:33.711Z,91.10
2023-11-01T05:48:08.068Z,91.10
2023-11-01T05:50:35.793Z,91.10
2023-11-01T05:53:03.965Z,91.20
2023-11-01T05:55:38.542Z,91.30
2023-11-01T05:58:15.810Z,91.30
2023-11-01T06:00:42.774Z,91.40
2023-11-01T06:03:10.090Z,91.60
2023-11-01T06:05:40.483Z,91.50
2023-11-01T06:08:10.497Z,91.40
2023-11-01T06:10:38.010Z,91.40
2023-11-01T06:13:05.321Z,91.40
2023-11-01T06:15:33.265Z,91.30
2023-11-01T06:18:00.058Z,91.30
2023-11-01T06:20:26.817Z,91.20
2023-11-01T06:22:53.736Z,91.30
2023-11-01T06:25:21.885Z,91.20
2023-11-01T06:27:49.151Z,91.30
2023-11-01T06:30:17.465Z,91.20
2023-11-01T06:32:44.497Z,91.10
2023-11-01T06:35:11.302Z,91.10
2023-11-01T06:37:38.180Z,91.10
2023-11-01T06:40:06.535Z,91.00
2023-11-01T06:42:35.360Z,91.00
2023-11-01T06:45:03.469Z,91.00
2023-11-01T06:47:32.659Z,91.20
2023-11-01T06:49:59.612Z,91.30
2023-11-01T06:52:29.397Z,91.60
2023-11-01T06:54:56.363Z,91.60
2023-11-01T06:57:23.821Z,91.60
2023-11-01T06:59:50.520Z,91.60
2023-11-01T07:02:17.279Z,91.40
2023-11-01T07:04:44.063Z,91.30
2023-11-01T07:07:14.710Z,91.10
2023-11-01T07:09:42.425Z,90.80
2023-11-01T07:12:09.370Z,90.50
2023-11-01T07:14:36.036Z,90.20
2023-11-01T07:17:02.999Z,89.70
2023-11-01T07:19:29.657Z,89.40
2023-11-01T07:21:56.501Z,89.20
2023-11-01T07:24:23.115Z,89.20
2023-11-01T07:26:49.834Z,89.10
2023-11-01T07:29:16.578Z,88.40
2023-11-01T07:31:43.920Z,87.90
2023-11-01T07:34:13.414Z,87.50
2023-11-01T07:36:40.065Z,87.40
2023-11-01T07:39:07.737Z,87.30
2023-11-01T07:41:37.523Z,87.00
2023-11-01T07:44:04.473Z,87.00
2023-11-01T07:46:31.172Z,86.80
2023-11-01T07:49:03.681Z,86.50
2023-11-01T07:51:31.740Z,85.60
2023-11-01T07:54:01.781Z,85.20
2023-11-01T07:56:28.513Z,84.70
2023-11-01T07:58:55.584Z,84.30
2023-11-01T08:01:22.980Z,83.40
2023-11-01T08:03:53.394Z,83.50
2023-11-01T08:06:20.321Z,82.20
2023-11-01T08:08:48.652Z,82.00
2023-11-01T08:11:17.935Z,81.10
2023-11-01T08:13:44.647Z,80.70
2023-11-01T08:16:11.776Z,80.80
2023-11-01T08:18:38.693Z,80.10
2023-11-01T08:21:06.423Z,79.90
2023-11-01T08:23:33.172Z,79.70
2023-11-01T08:26:03.927Z,79.00
2023-11-01T08:28:31.564Z,78.40
2023-11-01T08:30:59.646Z,78.20
2023-11-01T08:33:27.260Z,78.30
2023-11-01T08:35:56.477Z,76.90
2023-11-01T08:38:23.304Z,76.50
2023-11-01T08:40:49.998Z,75.80
2023-11-01T08:43:18.647Z,75.10
2023-11-01T08:45:45.448Z,75.60
2023-11-01T08:48:14.200Z,75.70
2023-11-01T08:50:41.332Z,74.50
2023-11-01T08:53:15.785Z,74.20
2023-11-01T08:55:42.518Z,74.40
2023-11-01T08:58:11.409Z,74.60
2023-11-01T09:00:45.851Z,72.70
2023-11-01T09:03:19.565Z,72.70
2023-11-01T09:05:47.380Z,71.80
2023-11-01T09:08:15.385Z,71.70
2023-11-01T09:10:53.766Z,71.20
2023-11-01T09:13:27.830Z,73.60
2023-11-01T09:15:55.541Z,72.10
2023-11-01T09:18:22.847Z,71.60
2023-11-01T09:20:50.344Z,72.30
2023-11-01T09:23:17.264Z,72.20
2023-11-01T09:25:44.036Z,71.70
2023-11-01T09:28:10.915Z,70.70
2023-11-01T09:30:37.648Z,69.80
2023-11-01T09:33:05.726Z,69.90
2023-11-01T09:35:33.171Z,70.30
2023-11-01T09:38:00.594Z,70.10
2023-11-01T09:40:27.647Z,70.70
2023-11-01T09:42:55.873Z,69.50
2023-11-01T09:45:24.199Z,69.00
2023-11-01T09:47:51.650Z,69.70
2023-11-01T09:50:24.158Z,69.30
2023-11-01T09:52:51.964Z,69.40
2023-11-01T09:55:19.705Z,69.10
2023-11-01T09:57:48.202Z,68.90
2023-11-01T10:00:17.200Z,67.20
2023-11-01T10:02:44.770Z,65.30
2023-11-01T10:05:11.452Z,65.20
2023-11-01T10:07:38.098Z,65.00
2023-11-01T10:10:07.807Z,65.40
2023-11-01T10:12:36.092Z,64.60
2023-11-01T10:15:05.843Z,65.00
2023-11-01T10:17:33.015Z,64.70
2023-11-01T10:20:03.361Z,65.10
2023-11-01T10:22:31.614Z,64.00
2023-11-01T10:25:01.229Z,64.40
2023-11-01T10:27:28.783Z,58.30
2023-11-01T10:30:01.688Z,58.30
2023-11-01T10:32:28.452Z,58.50
2023-11-01T10:35:10.995Z,60.00
2023-11-01T10:37:38.647Z,57.40
2023-11-01T10:40:07.599Z,59.20
2023-11-01T10:42:41.385Z,58.30
2023-11-01T10:45:09.790Z,59.50
2023-11-01T10:47:39.799Z,57.80
2023-11-01T10:50:07.665Z,60.10
2023-11-01T10:52:35.387Z,58.30
2023-11-01T10:55:05.951Z,56.30
2023-11-01T10:57:35.257Z,57.50
2023-11-01T11:00:06.402Z,58.80
2023-11-01T11:02:35.915Z,55.40
2023-11-01T11:05:09.162Z,55.90
2023-11-01T11:07:45.980Z,54.90
2023-11-01T11:10:33.267Z,56.30
2023-11-01T11:13:09.381Z,55.20
2023-11-01T11:15:57.561Z,55.00
2023-11-01T11:18:25.757Z,53.80
2023-11-01T11:20:54.786Z,54.70
2023-11-01T11:23:32.388Z,56.50
2023-11-01T11:26:05.821Z,53.80
2023-11-01T11:28:41.003Z,55.70
2023-11-01T11:31:16.445Z,53.30
2023-11-01T11:33:46.735Z,53.80
2023-11-01T11:36:18.827Z,54.80
2023-11-01T11:38:52.913Z,53.80
2023-11-01T11:41:24.155Z,53.30
2023-11-01T11:44:27.343Z,55.10
2023-11-01T11:47:11.715Z,53.80
2023-11-01T11:49:39.232Z,52.50
2023-11-01T11:52:08.828Z,51.40
2023-11-01T11:54:38.981Z,54.10
2023-11-01T11:57:09.943Z,53.50
2023-11-01T11:59:36.988Z,54.00
2023-11-01T12:02:28.508Z,53.60
2023-11-01T12:04:55.562Z,54.00
2023-11-01T12:07:24.088Z,52.90
2023-11-01T12:09:55.285Z,53.80
2023-11-01T12:12:23.545Z,55.40
2023-11-01T12:14:59.383Z,55.90
2023-11-01T12:17:32.869Z,55.90
2023-11-01T12:20:00.234Z,55.30
2023-11-01T12:22:27.359Z,56.00
2023-11-01T12:24:56.446Z,53.60
2023-11-01T12:27:31.473Z,55.40
2023-11-01T12:30:01.941Z,54.80
2023-11-01T12:32:30.988Z,55.70
2023-11-01T12:35:06.329Z,56.10
2023-11-01T12:37:34.160Z,56.00
2023-11-01T12:40:15.607Z,54.60
2023-11-01T12:42:52.308Z,53.50
2023-11-01T12:45:19.836Z,53.70
2023-11-01T12:47:47.958Z,53.50
2023-11-01T12:50:28.705Z,54.00
2023-11-01T12:52:58.773Z,51.70
2023-11-01T12:55:29.483Z,51.80
2023-11-01T12:57:56.844Z,52.50
2023-11-01T13:00:30.112Z,52.40
2023-11-01T13:02:58.304Z,53.80
2023-11-01T13:05:25.562Z,53.00
2023-11-01T13:07:56.624Z,51.80
2023-11-01T13:10:23.628Z,51.80
2023-11-01T13:12:50.229Z,53.40
2023-11-01T13:15:17.713Z,52.30
2023-11-01T13:17:45.261Z,53.10
2023-11-01T13:20:12.950Z,54.20
2023-11-01T13:22:43.004Z,53.20
2023-11-01T13:25:09.971Z,54.20
2023-11-01T13:27:38.227Z,54.60
2023-11-01T13:30:06.417Z,56.20
2023-11-01T13:32:35.404Z,55.50
2023-11-01T13:35:05.217Z,56.90
2023-11-01T13:37:33.486Z,56.90
2023-11-01T13:40:03.393Z,57.60
2023-11-01T13:42:31.664Z,58.40
2023-11-01T13:44:59.091Z,59.20
2023-11-01T13:47:26.821Z,58.60
2023-11-01T13:49:57.191Z,59.10
2023-11-01T13:52:25.126Z,59.30
2023-11-01T13:54:53.126Z,60.20
2023-11-01T13:57:22.080Z,59.00
2023-11-01T13:59:48.847Z,58.90
2023-11-01T14:02:15.670Z,58.90
2023-11-01T14:04:43.308Z,59.30
2023-11-01T14:07:10.112Z,60.50
2023-11-01T14:09:41.161Z,60.70
2023-11-01T14:12:08.449Z,60.60
2023-11-01T14:14:36.313Z,60.40
2023-11-01T14:17:03.471Z,60.90
2023-11-01T14:19:31.743Z,60.50
2023-11-01T14:21:58.439Z,61.10
2023-11-01T14:24:25.304Z,61.30
2023-11-01T14:26:53.563Z,61.80
2023-11-01T14:29:22.621Z,62.80
2023-11-01T14:31:49.872Z,62.10
2023-11-01T14:34:17.890Z,62.20
2023-11-01T14:36:44.976Z,62.40
2023-11-01T14:39:11.919Z,62.30
2023-11-01T14:41:39.666Z,62.50
2023-11-01T14:44:06.634Z,63.50
2023-11-01T14:46:38.972Z,63.10
2023-11-01T14:49:06.973Z,63.30
2023-11-01T14:51:36.419Z,62.80
2023-11-01T14:54:05.203Z,63.00
2023-11-01T14:56:31.968Z,63.10
2023-11-01T14:59:01.489Z,63.70
2023-11-01T15:01:30.842Z,64.50
2023-11-01T15:03:58.670Z,64.20
2023-11-01T15:06:25.879Z,64.50
2023-11-01T15:08:52.510Z,65.20
2023-11-01T15:11:21.640Z,65.90
2023-11-01T15:13:48.302Z,65.80
2023-11-01T15:16:18.268Z,66.30
2023-11-01T15:18:44.934Z,67.00
2023-11-01T15:21:14.346Z,67.60
2023-11-01T15:23:42.502Z,68.20
2023-11-01T15:26:12.140Z,68.20
2023-11-01T15:28:38.918Z,69.00
2023-11-01T15:31:05.772Z,69.50
2023-11-01T15:33:32.991Z,70.10
2023-11-01T15:36:00.152Z,70.50
2023-11-01T15:38:28.253Z,70.50
2023-11-01T15:40:56.292Z,71.30
2023-11-01T15:43:25.493Z,71.80
2023-11-01T15:45:52.563Z,72.20
2023-11-01T15:48:22.641Z,72.70
2023-11-01T15:50:50.809Z,73.40
2023-11-01T15:53:19.589Z,73.70
2023-11-01T15:55:46.659Z,73.90
2023-11-01T15:58:13.402Z,74.40
2023-11-01T16:00:40.049Z,75.10
2023-11-01T16:03:12.362Z,75.40
2023-11-01T16:05:47.940Z,75.50
2023-11-01T16:08:14.896Z,76.00
2023-11-01T16:10:43.924Z,76.50
2023-11-01T16:13:12.743Z,76.70
2023-11-01T16:15:40.673Z,77.10
2023-11-01T16:18:09.155Z,77.60
2023-11-01T16:20:37.229Z,77.80
2023-11-01T16:23:03.956Z,77.80
2023-11-01T16:25:30.604Z,78.00
2023-11-01T16:27:57.334Z,78.20
2023-11-01T16:30:24.525Z,78.50
2023-11-01T16:32:56.268Z,78.90
2023-11-01T16:35:25.823Z,79.30
2023-11-01T16:37:54.864Z,79.60
2023-11-01T16:40:22.618Z,79.80
2023-11-01T16:42:49.388Z,80.30
2023-11-01T16:45:16.110Z,80.60
2023-11-01T16:47:45.954Z,80.70
2023-11-01T16:50:12.726Z,80.80
2023-11-01T16:52:39.483Z,80.90
2023-11-01T16:55:08.430Z,80.60
2023-11-01T16:57:36.615Z,80.60
2023-11-01T17:00:05.015Z,80.70
2023-11-01T17:02:42.625Z,80.90
2023-11-01T17:05:18.640Z,81.00
2023-11-01T17:07:45.332Z,81.20
2023-11-01T17:10:13.330Z,81.50
2023-11-01T17:12:40.027Z,81.70
2023-11-01T17:15:09.044Z,82.00
2023-11-01T17:17:37.823Z,82.30
2023-11-01T17:20:05.711Z,82.50
2023-11-01T17:22:34.821Z,82.70
2023-11-01T17:25:01.468Z,82.90
2023-11-01T17:27:35.044Z,83.20
2023-11-01T17:30:01.861Z,83.40
2023-11-01T17:32:31.495Z,83.60
2023-11-01T17:34:58.388Z,83.60
2023-11-01T17:37:26.623Z,84.10
2023-11-01T17:39:59.497Z,84.40
2023-11-01T17:42:26.902Z,84.50
2023-11-01T17:44:55.696Z,84.60
2023-11-01T17:47:24.921Z,84.40
2023-11-01T17:49:57.849Z,84.70
2023-11-01T17:52:32.040Z,85.00
2023-11-01T17:54:59.629Z,85.10
2023-11-01T17:57:26.518Z,85.20
2023-11-01T17:59:54.123Z,85.30
2023-11-01T18:02:28.314Z,85.40
2023-11-01T18:04:56.126Z,85.50
2023-11-01T18:07:25.444Z,85.50
2023-11-01T18:09:52.766Z,85.60
2023-11-01T18:12:27.647Z,85.40
2023-11-01T18:14:55.789Z,85.40
2023-11-01T18:17:23.447Z,85.50
2023-11-01T18:19:50.566Z,85.60
2023-11-01T18:22:34.330Z,85.70
2023-11-01T18:25:03.118Z,85.90
2023-11-01T18:27:29.938Z,86.00
2023-11-01T18:29:56.674Z,86.00
2023-11-01T18:32:24.504Z,86.00
2023-11-01T18:34:52.192Z,86.00
2023-11-01T18:37:19.436Z,85.90
2023-11-01T18:39:49.500Z,85.60
2023-11-01T18:42:29.807Z,85.70
2023-11-01T18:44:59.417Z,86.00
2023-11-01T18:47:30.306Z,86.00
2023-11-01T18:50:03.216Z,86.00
2023-11-01T18:52:31.435Z,86.20
2023-11-01T18:54:59.151Z,86.40
2023-11-01T18:57:35.528Z,86.10
2023-11-01T19:00:03.508Z,86.20
2023-11-01T19:02:35.870Z,86.40
2023-11-01T19:05:04.981Z,86.50
2023-11-01T19:07:33.799Z,86.60
2023-11-01T19:10:01.808Z,86.60
2023-11-01T19:12:29.043Z,86.60
2023-11-01T19:14:56.525Z,86.70
2023-11-01T19:17:29.937Z,86.80
2023-11-01T19:19:59.568Z,86.90
2023-11-01T19:22:26.554Z,87.00
2023-11-01T19:24:58.609Z,87.10
2023-11-01T19:27:25.729Z,87.00
2023-11-01T19:29:52.595Z,87.20
2023-11-01T19:32:19.563Z,87.40
2023-11-01T19:34:46.715Z,87.30
2023-11-01T19:37:13.518Z,87.30
2023-11-01T19:39:42.174Z,87.30
2023-11-01T19:42:08.945Z,87.40
2023-11-01T19:44:38.689Z,87.60
2023-11-01T19:47:13.035Z,87.70
2023-11-01T19:49:40.023Z,87.80
2023-11-01T19:52:09.265Z,88.00
2023-11-01T19:54:37.078Z,88.00
2023-11-01T19:57:06.369Z,88.00
2023-11-01T19:59:35.288Z,88.00
2023-11-01T20:02:05.530Z,88.10
2023-11-01T20:04:33.038Z,88.10
2023-11-01T20:07:00.380Z,88.30
2023-11-01T20:09:27.388Z,88.20
2023-11-01T20:12:03.384Z,88.10
2023-11-01T20:14:32.775Z,88.00
2023-11-01T20:17:00.537Z,88.00
2023-11-01T20:19:27.220Z,88.10
2023-11-01T20:21:53.924Z,87.90
2023-11-01T20:24:22.459Z,87.90
2023-11-01T20:26:49.672Z,87.80
2023-11-01T20:29:17.232Z,87.80
2023-11-01T20:31:45.861Z,87.90
2023-11-01T20:34:12.850Z,88.30
2023-11-01T20:36:41.378Z,88.00
2023-11-01T20:39:10.541Z,87.90
2023-11-01T20:41:40.395Z,87.90
2023-11-01T20:44:07.238Z,87.70
2023-11-01T20:46:36.972Z,87.60
2023-11-01T20:49:03.813Z,87.50
2023-11-01T20:51:31.686Z,87.50
2023-11-01T20:54:00.075Z,87.50
2023-11-01T20:56:28.118Z,87.60
2023-11-01T20:58:57.891Z,87.80
2023-11-01T21:01:25.068Z,87.80
2023-11-01T21:03:52.409Z,87.90
2023-11-01T21:06:19.202Z,87.90
2023-11-01T21:08:48.067Z,88.10
2023-11-01T21:11:19.157Z,88.10
2023-11-01T21:13:47.074Z,88.40
2023-11-01T21:16:17.737Z,88.50
2023-11-01T21:18:45.880Z,88.70
2023-11-01T21:21:14.540Z,88.80
2023-11-01T21:23:42.739Z,89.10
2023-11-01T21:26:09.695Z,89.10
2023-11-01T21:28:40.543Z,89.10
2023-11-01T21:31:12.674Z,89.30
2023-11-01T21:33:43.727Z,89.20
2023-11-01T21:36:11.577Z,89.40
2023-11-01T21:38:39.947Z,89.20
2023-11-01T21:41:08.806Z,89.30
2023-11-01T21:43:40.966Z,89.40
2023-11-01T21:46:15.967Z,89.50
2023-11-01T21:48:46.239Z,89.60
2023-11-01T21:51:17.591Z,89.60
2023-11-01T21:53:47.141Z,89.80
2023-11-01T21:56:16.268Z,89.90
2023-11-01T21:58:43.660Z,90.00
2023-11-01T22:01:11.197Z,89.90
2023-11-01T22:03:43.314Z,89.90
2023-11-01T22:06:30.239Z,90.00
2023-11-01T22:09:09.183Z,90.30
2023-11-01T22:11:37.418Z,90.30
2023-11-01T22:14:11.968Z,90.20
2023-11-01T22:16:46.624Z,90.10
2023-11-01T22:19:33.158Z,90.20
2023-11-01T22:22:21.671Z,90.50
2023-11-01T22:24:48.754Z,90.50
2023-11-01T22:27:16.529Z,90.50
2023-11-01T22:29:44.603Z,90.70
2023-11-01T22:32:20.440Z,90.80
2023-11-01T22:34:51.982Z,90.60
2023-11-01T22:37:19.130Z,90.70
2023-11-01T22:39:52.490Z,90.60
2023-11-01T22:42:29.574Z,90.50
2023-11-01T22:44:56.928Z,90.40
2023-11-01T22:47:24.062Z,90.50
2023-11-01T22:49:54.251Z,90.50
2023-11-01T22:52:21.937Z,90.50
2023-11-01T22:54:51.335Z,90.60
2023-11-01T22:57:19.570Z,90.70
2023-11-01T22:59:47.879Z,90.60
2023-11-01T23:02:16.704Z,90.60
2023-11-01T23:04:43.994Z,90.60
2023-11-01T23:07:15.625Z,90.50
2023-11-01T23:09:45.370Z,90.50
2023-11-01T23:12:13.663Z,90.50
2023-11-01T23:14:45.535Z,90.30
2023-11-01T23:17:14.563Z,90.30
2023-11-01T23:19:42.718Z,90.30
2023-11-01T23:22:12.530Z,90.30
2023-11-01T23:24:41.720Z,90.40
2023-11-01T23:27:09.523Z,90.30
2023-11-01T23:29:39.079Z,90.40
2023-11-01T23:32:12.415Z,90.50
2023-11-01T23:34:54.922Z,90.50
2023-11-01T23:37:23.977Z,90.40
2023-11-01T23:39:51.835Z,90.60
2023-11-01T23:42:20.185Z,90.60
2023-11-01T23:44:48.600Z,90.80
2023-11-01T23:47:48.254Z,90.80
2023-11-01T23:50:33.385Z,90.80
2023-11-01T23:53:05.105Z,90.90
2023-11-01T23:55:32.668Z,90.80
2023-11-01T23:58:03.402Z,90.80
